Pagina principale
METAR-TAF:

METAR-TAF

Aeroporti :

Novara, Italia

Aeroporto militare Cameri

latitudine: 45-31N, longitudine: 008-40E, altezza: 178 m

Osservazione

Il bollettino è stato emesso 43 minuti fa, alle 12:55 UTC
Vento 5 kt da nord-est, variando fra nord-ovest e est
Temperature 23°C
Umidità 22%
Pressione 1010 hPa
Visibilità 10 km o più
nessuna nube inferiore a 1500 m e nessun cumulonembo

METAR: LIMN 191255Z 04005KT 320V080 CAVOK 23/00 Q1010 RMK SKC VIS MIN 9999 BLU

Ora: 15:38 (13:38 UTC)

Previsione

Il bollettino è stato emesso 2 ore e 38 minuti fa, alle 11:00 UTC
Previsione valida dal 19 alle 12 UTC al 19 alle 21 UTC
Vento 8 kt da ovest/nord-ovest
Visibilità 10 km o più
nessuna nube inferiore a 1500 m e nessun cumulonembo

TAF: LIMN 191100Z 1912/1921 30008KT CAVOK

Osservazioni e previsioni meteorologiche di più di 4000 aeroporti (messaggi METAR e TAF).

Le stazioni disponibili sono rappresentate dai dischi gialli e rossi sulla carta.

Puntare il mouse per vedere il nome della stazione.

Clicca sopra per visualizzare le osservazioni e previsioni meteorologiche.

Per cambiare la mappa : fare clic sui pulsanti verdi con una croce nera per ingrandire, il pulsante verde con un trattino per diminuire, o sulla freccia verde per le mappe adiacenti.


METAR-TAF: